| time (UTC) | temp F | wind direction | speed MPH | gust MPH | rain 1hr in | rain 24hr in | rain mn in | humidity % | barometer mb |
| 20260902093052 | 60 | 189 | 3.0 | 11.0 | 0.00 | 0.02 | 0.00 | 86 | 1009.8 |
| 20260902091550 | 60 | 127 | 3.0 | 7.0 | 0.00 | 0.02 | 0.00 | 86 | 1009.8 |
| 20260902090047 | 60 | 176 | 0.0 | 3.0 | 0.00 | 0.02 | 0.00 | 86 | 1010.1 |
| 20260902084550 | 60 | 0 | 3.0 | 10.0 | 0.00 | 0.02 | 0.00 | 85 | 1010.3 |
| 20260902083047 | 60 | 0 | 0.0 | 3.0 | 0.00 | 0.02 | 0.00 | 85 | 1010.4 |
| 20260902081550 | 60 | 150 | 2.0 | 6.0 | 0.00 | 0.02 | 0.00 | 84 | 1010.5 |
| 20260902080052 | 60 | 162 | 3.0 | 7.0 | 0.00 | 0.02 | 0.00 | 84 | 1010.5 |
| 20260902074553 | 61 | 156 | 3.0 | 10.0 | 0.00 | 0.02 | 0.00 | 83 | 1010.8 |
| 20260902073052 | 60 | 168 | 4.0 | 10.0 | 0.00 | 0.02 | 0.00 | 84 | 1010.9 |
| 20260902071546 | 60 | 124 | 4.0 | 8.0 | 0.00 | 0.02 | 0.00 | 85 | 1011.0 |
| 20260902070042 | 60 | 164 | 4.0 | 11.0 | 0.00 | 0.02 | 0.00 | 85 | 1011.0 |
| 20260902064552 | 60 | 152 | 3.0 | 7.0 | 0.00 | 0.02 | 0.02 | 86 | 1011.0 |
| 20260902063059 | 60 | 134 | 0.0 | 1.0 | 0.00 | 0.02 | 0.02 | 87 | 1011.2 |
| 20260902061543 | 60 | 163 | 0.0 | 3.0 | 0.00 | 0.02 | 0.02 | 87 | 1011.1 |
| 20260902060110 | 60 | 193 | 2.0 | 6.0 | 0.00 | 0.02 | 0.02 | 87 | 1011.3 |
| 20260902054548 | 60 | 161 | 2.0 | 5.0 | 0.00 | 0.02 | 0.02 | 87 | 1011.3 |
| 20260902053053 | 60 | 167 | 1.0 | 6.0 | 0.00 | 0.02 | 0.02 | 88 | 1011.4 |
| 20260902051551 | 59 | 159 | 1.0 | 4.0 | 0.00 | 0.02 | 0.02 | 90 | 1011.4 |
| 20260902050050 | 59 | 0 | 0.0 | 2.0 | 0.00 | 0.02 | 0.02 | 90 | 1011.5 |
| 20260902044546 | 60 | 0 | 0.0 | 3.0 | 0.00 | 0.02 | 0.02 | 90 | 1011.7 |
| 20260902043048 | 60 | 189 | 2.0 | 4.0 | 0.00 | 0.02 | 0.02 | 89 | 1011.8 |
| 20260902041603 | 60 | 0 | 0.0 | 0.0 | 0.00 | 0.02 | 0.02 | 88 | 1011.8 |
| 20260902040047 | 60 | 0 | 0.0 | 2.0 | 0.00 | 0.02 | 0.02 | 88 | 1011.9 |
| 20260902034546 | 60 | 0 | 0.0 | 2.0 | 0.00 | 0.02 | 0.02 | 87 | 1011.9 |
| 20260902033056 | 60 | 187 | 0.0 | 3.0 | 0.00 | 0.02 | 0.02 | 87 | 1012.1 |
| 20260902031550 | 61 | 197 | 1.0 | 5.0 | 0.00 | 0.02 | 0.02 | 86 | 1011.9 |
| 20260902030049 | 61 | 201 | 1.0 | 4.0 | 0.00 | 0.02 | 0.02 | 84 | 1012.0 |
| 20260902024541 | 61 | 205 | 2.0 | 6.0 | 0.00 | 0.02 | 0.02 | 83 | 1012.0 |
| 20260902023051 | 62 | 194 | 0.0 | 4.0 | 0.00 | 0.02 | 0.02 | 82 | 1011.9 |
| 20260902021553 | 62 | 241 | 1.0 | 5.0 | 0.00 | 0.02 | 0.02 | 82 | 1011.8 |
| 20260902020053 | 62 | 279 | 0.0 | 3.0 | 0.00 | 0.02 | 0.02 | 82 | 1011.9 |
| 20260902014551 | 63 | 0 | 0.0 | 6.0 | 0.00 | 0.02 | 0.02 | 81 | 1012.0 |
| 20260902013047 | 64 | 174 | 1.0 | 4.0 | 0.00 | 0.02 | 0.02 | 79 | 1012.0 |
| 20260902011546 | 64 | 200 | 1.0 | 4.0 | 0.00 | 0.02 | 0.02 | 80 | 1011.9 |
| 20260902010052 | 62 | 205 | 4.0 | 9.0 | 0.00 | 0.02 | 0.02 | 81 | 1011.9 |
| 20260902004551 | 62 | 173 | 2.0 | 11.0 | 0.00 | 0.02 | 0.02 | 81 | 1011.9 |
| 20260902003054 | 63 | 188 | 3.0 | 10.0 | 0.00 | 0.02 | 0.02 | 80 | 1012.0 |
| 20260902001551 | 63 | 217 | 4.0 | 11.0 | 0.00 | 0.02 | 0.02 | 77 | 1012.1 |
| 20260902000108 | 65 | 210 | 3.0 | 10.0 | 0.00 | 0.02 | 0.02 | 74 | 1011.9 |
| 20260901234548 | 65 | 241 | 1.0 | 7.0 | 0.00 | 0.02 | 0.02 | 76 | 1011.9 |
| 20260901233052 | 65 | 0 | 2.0 | 9.0 | 0.00 | 0.02 | 0.02 | 75 | 1012.0 |
| 20260901231551 | 64 | 198 | 4.0 | 12.0 | 0.00 | 0.02 | 0.02 | 77 | 1012.0 |
| 20260901230103 | 65 | 127 | 5.0 | 11.0 | 0.00 | 0.02 | 0.02 | 75 | 1011.9 |
| 20260901224542 | 65 | 171 | 6.0 | 10.0 | 0.00 | 0.02 | 0.02 | 75 | 1012.1 |
| 20260901223055 | 64 | 170 | 3.0 | 8.0 | 0.00 | 0.02 | 0.02 | 77 | 1012.1 |
| 20260901221547 | 64 | 198 | 3.0 | 8.0 | 0.00 | 0.02 | 0.02 | 77 | 1012.3 |
| 20260901220109 | 64 | 192 | 2.0 | 8.0 | 0.00 | 0.02 | 0.02 | 78 | 1012.2 |
| 20260901214551 | 64 | 139 | 4.0 | 10.0 | 0.00 | 0.02 | 0.02 | 78 | 1012.1 |
| 20260901213112 | 64 | 164 | 2.0 | 8.0 | 0.00 | 0.02 | 0.02 | 79 | 1012.1 |
| 20260901211548 | 64 | 191 | 2.0 | 8.0 | 0.00 | 0.02 | 0.02 | 79 | 1012.0 |
| 20260901210059 | 64 | 192 | 3.0 | 9.0 | 0.00 | 0.02 | 0.02 | 80 | 1012.1 |
| 20260901204547 | 64 | 219 | 3.0 | 10.0 | 0.00 | 0.02 | 0.02 | 80 | 1012.1 |
| 20260901203058 | 63 | 204 | 3.0 | 9.0 | 0.00 | 0.02 | 0.02 | 82 | 1012.1 |
| 20260901201552 | 64 | 230 | 2.0 | 6.0 | 0.00 | 0.02 | 0.02 | 82 | 1012.3 |
| 20260901200048 | 63 | 196 | 3.0 | 6.0 | 0.00 | 0.02 | 0.02 | 83 | 1012.2 |
| 20260901194551 | 64 | 151 | 2.0 | 6.0 | 0.00 | 0.02 | 0.02 | 83 | 1012.3 |
| 20260901193103 | 63 | 271 | 1.0 | 6.0 | 0.00 | 0.02 | 0.02 | 84 | 1012.4 |
| 20260901191547 | 64 | 155 | 3.0 | 8.0 | 0.00 | 0.02 | 0.02 | 83 | 1012.4 |
| 20260901190046 | 64 | 260 | 1.0 | 4.0 | 0.00 | 0.02 | 0.02 | 83 | 1012.3 |
| 20260901184551 | 64 | 0 | 2.0 | 6.0 | 0.00 | 0.02 | 0.02 | 85 | 1012.4 |
| 20260901183055 | 64 | 266 | 2.0 | 7.0 | 0.00 | 0.02 | 0.02 | 86 | 1012.5 |
| 20260901181550 | 63 | 263 | 0.0 | 6.0 | 0.00 | 0.02 | 0.02 | 88 | 1012.4 |
| 20260901180047 | 62 | 175 | 4.0 | 9.0 | 0.00 | 0.02 | 0.02 | 88 | 1012.3 |
| 20260901174552 | 62 | 190 | 3.0 | 9.0 | 0.00 | 0.02 | 0.02 | 90 | 1012.4 |
| 20260901173057 | 61 | 0 | 1.0 | 4.0 | 0.00 | 0.02 | 0.02 | 92 | 1012.3 |
| 20260901171548 | 61 | 0 | 0.0 | 4.0 | 0.00 | 0.02 | 0.02 | 94 | 1012.2 |
| 20260901170105 | 60 | 182 | 1.0 | 4.0 | 0.00 | 0.02 | 0.02 | 94 | 1012.0 |
| 20260901164550 | 60 | 0 | 0.0 | 5.0 | 0.00 | 0.02 | 0.02 | 95 | 1012.0 |
| 20260901163046 | 59 | 146 | 1.0 | 3.0 | 0.00 | 0.02 | 0.02 | 96 | 1012.2 |
| 20260901161555 | 59 | 0 | 1.0 | 3.0 | 0.00 | 0.02 | 0.02 | 96 | 1012.2 |
| 20260901160048 | 59 | 0 | 0.0 | 0.0 | 0.00 | 0.02 | 0.02 | 96 | 1012.3 |
| 20260901154551 | 59 | 0 | 0.0 | 1.0 | 0.00 | 0.02 | 0.02 | 97 | 1012.2 |
| 20260901153049 | 58 | 0 | 0.0 | 1.0 | 0.01 | 0.02 | 0.02 | 96 | 1012.3 |
| 20260901151547 | 58 | 0 | 0.0 | 2.0 | 0.01 | 0.02 | 0.02 | 96 | 1012.3 |
| 20260901150046 | 58 | 0 | 1.0 | 3.0 | 0.01 | 0.02 | 0.02 | 97 | 1012.2 |
| 20260901144551 | 58 | 0 | 0.0 | 3.0 | 0.02 | 0.02 | 0.02 | 96 | 1012.1 |
| 20260901143050 | 58 | 82 | 0.0 | 4.0 | 0.01 | 0.01 | 0.01 | 96 | 1011.9 |
| 20260901141547 | 58 | 76 | 0.0 | 3.0 | 0.01 | 0.01 | 0.01 | 96 | 1011.8 |
| 20260901140052 | 58 | 0 | 0.0 | 2.0 | 0.01 | 0.01 | 0.01 | 96 | 1011.7 |
| 20260901134608 | 58 | 157 | 1.0 | 4.0 | 0.00 | 0.00 | 0.00 | 96 | 1011.8 |
| 20260901133053 | 58 | 150 | 1.0 | 4.0 | 0.00 | 0.00 | 0.00 | 96 | 1011.7 |
| 20260901131545 | 58 | 0 | 0.0 | 1.0 | 0.00 | 0.00 | 0.00 | 96 | 1011.6 |
| 20260901130054 | 58 | 0 | 0.0 | 2.0 | 0.00 | 0.00 | 0.00 | 95 | 1011.6 |
| 20260901124550 | 58 | 0 | 0.0 | 2.0 | 0.00 | 0.00 | 0.00 | 95 | 1011.6 |
| 20260901123048 | 58 | 0 | 0.0 | 1.0 | 0.00 | 0.00 | 0.00 | 95 | 1011.7 |
| 20260901121542 | 58 | 0 | 0.0 | 1.0 | 0.00 | 0.00 | 0.00 | 95 | 1011.6 |
| 20260901120056 | 58 | 77 | 0.0 | 2.0 | 0.00 | 0.00 | 0.00 | 95 | 1011.6 |
| 20260901114548 | 58 | 62 | 0.0 | 2.0 | 0.00 | 0.00 | 0.00 | 95 | 1011.7 |
| 20260901113049 | 58 | 0 | 0.0 | 1.0 | 0.00 | 0.00 | 0.00 | 95 | 1011.8 |
| 20260901111553 | 58 | 0 | 0.0 | 2.0 | 0.00 | 0.00 | 0.00 | 95 | 1011.8 |
| 20260901110051 | 58 | 0 | 0.0 | 2.0 | 0.00 | 0.00 | 0.00 | 95 | 1011.7 |
| 20260901104551 | 58 | 0 | 0.0 | 2.0 | 0.00 | 0.00 | 0.00 | 95 | 1011.9 |
| 20260901103053 | 58 | 61 | 0.0 | 3.0 | 0.00 | 0.00 | 0.00 | 95 | 1011.8 |
| 20260901101549 | 58 | 0 | 0.0 | 2.0 | 0.00 | 0.00 | 0.00 | 95 | 1011.7 |
| 20260901100048 | 58 | 0 | 0.0 | 2.0 | 0.00 | 0.00 | 0.00 | 95 | 1011.7 |
| 20260901094544 | 58 | 0 | 0.0 | 1.0 | 0.00 | 0.00 | 0.00 | 95 | 1011.7 |